sensor_id;sensor_type;location;lat;lon;timestamp;temperature;humidity
15103;DHT22;7652;53.584;9.998;2022-08-07T00:01:05;15.00;99.90
15103;DHT22;7652;53.584;9.998;2022-08-07T00:04:30;15.10;99.90
15103;DHT22;7652;53.584;9.998;2022-08-07T00:07:34;15.10;99.90
15103;DHT22;7652;53.584;9.998;2022-08-07T00:10:42;15.10;99.90
15103;DHT22;7652;53.584;9.998;2022-08-07T00:13:49;15.00;99.90
15103;DHT22;7652;53.584;9.998;2022-08-07T00:16:52;15.00;99.90
15103;DHT22;7652;53.584;9.998;2022-08-07T00:19:56;14.90;99.90
15103;DHT22;7652;53.584;9.998;2022-08-07T00:23:04;14.80;99.90
15103;DHT22;7652;53.584;9.998;2022-08-07T00:26:10;14.90;99.90
15103;DHT22;7652;53.584;9.998;2022-08-07T00:29:33;14.90;99.90
15103;DHT22;7652;53.584;9.998;2022-08-07T00:32:38;14.90;99.90
15103;DHT22;7652;53.584;9.998;2022-08-07T00:35:43;14.90;99.90
15103;DHT22;7652;53.584;9.998;2022-08-07T00:38:50;14.90;99.90
15103;DHT22;7652;53.584;9.998;2022-08-07T00:41:55;14.90;99.90
15103;DHT22;7652;53.584;9.998;2022-08-07T00:45:07;14.70;99.90
15103;DHT22;7652;53.584;9.998;2022-08-07T00:48:17;14.70;99.90
15103;DHT22;7652;53.584;9.998;2022-08-07T00:51:27;14.70;99.90
15103;DHT22;7652;53.584;9.998;2022-08-07T00:54:50;14.70;99.90
15103;DHT22;7652;53.584;9.998;2022-08-07T00:57:55;14.70;99.90
15103;DHT22;7652;53.584;9.998;2022-08-07T01:00:58;14.60;99.90
15103;DHT22;7652;53.584;9.998;2022-08-07T01:04:04;14.60;99.90
15103;DHT22;7652;53.584;9.998;2022-08-07T01:07:10;14.60;99.90
15103;DHT22;7652;53.584;9.998;2022-08-07T01:10:13;14.50;99.90
15103;DHT22;7652;53.584;9.998;2022-08-07T01:13:19;14.40;99.90
15103;DHT22;7652;53.584;9.998;2022-08-07T01:16:23;14.30;99.90
15103;DHT22;7652;53.584;9.998;2022-08-07T01:19:31;14.30;99.90
15103;DHT22;7652;53.584;9.998;2022-08-07T01:22:40;14.30;99.90
15103;DHT22;7652;53.584;9.998;2022-08-07T01:26:01;14.30;99.90
15103;DHT22;7652;53.584;9.998;2022-08-07T01:29:05;14.40;99.90
15103;DHT22;7652;53.584;9.998;2022-08-07T01:32:08;14.40;99.90
15103;DHT22;7652;53.584;9.998;2022-08-07T01:35:14;14.30;99.90
15103;DHT22;7652;53.584;9.998;2022-08-07T01:38:20;14.20;99.90
15103;DHT22;7652;53.584;9.998;2022-08-07T01:41:26;14.20;99.90
15103;DHT22;7652;53.584;9.998;2022-08-07T01:44:33;14.30;99.90
15103;DHT22;7652;53.584;9.998;2022-08-07T01:47:36;14.30;99.90
15103;DHT22;7652;53.584;9.998;2022-08-07T01:51:01;14.30;99.90
15103;DHT22;7652;53.584;9.998;2022-08-07T01:54:27;14.30;99.90
15103;DHT22;7652;53.584;9.998;2022-08-07T01:57:38;14.30;99.90
15103;DHT22;7652;53.584;9.998;2022-08-07T02:01:08;14.20;99.90
15103;DHT22;7652;53.584;9.998;2022-08-07T02:04:38;14.20;99.90
15103;DHT22;7652;53.584;9.998;2022-08-07T02:08:00;14.10;99.90
15103;DHT22;7652;53.584;9.998;2022-08-07T02:11:09;14.20;99.90
15103;DHT22;7652;53.584;9.998;2022-08-07T02:14:34;14.20;99.90
15103;DHT22;7652;53.584;9.998;2022-08-07T02:17:43;14.10;99.90
15103;DHT22;7652;53.584;9.998;2022-08-07T02:20:51;14.00;99.90
15103;DHT22;7652;53.584;9.998;2022-08-07T02:23:59;13.90;99.90
15103;DHT22;7652;53.584;9.998;2022-08-07T02:27:04;13.90;99.90
15103;DHT22;7652;53.584;9.998;2022-08-07T02:30:09;13.90;99.90
15103;DHT22;7652;53.584;9.998;2022-08-07T02:33:16;13.90;99.90
15103;DHT22;7652;53.584;9.998;2022-08-07T02:36:21;13.90;99.90
15103;DHT22;7652;53.584;9.998;2022-08-07T02:39:33;13.80;99.90
15103;DHT22;7652;53.584;9.998;2022-08-07T02:42:59;13.80;99.90
15103;DHT22;7652;53.584;9.998;2022-08-07T02:46:09;13.80;99.90
15103;DHT22;7652;53.584;9.998;2022-08-07T02:49:16;13.80;99.90
15103;DHT22;7652;53.584;9.998;2022-08-07T02:52:42;13.80;99.90
15103;DHT22;7652;53.584;9.998;2022-08-07T02:55:51;13.80;99.90
15103;DHT22;7652;53.584;9.998;2022-08-07T02:59:10;13.90;99.90
15103;DHT22;7652;53.584;9.998;2022-08-07T03:02:13;13.90;99.90
15103;DHT22;7652;53.584;9.998;2022-08-07T03:05:17;14.00;99.90
15103;DHT22;7652;53.584;9.998;2022-08-07T03:08:22;14.00;99.90
15103;DHT22;7652;53.584;9.998;2022-08-07T03:11:30;13.90;99.90
15103;DHT22;7652;53.584;9.998;2022-08-07T03:14:42;13.80;99.90
15103;DHT22;7652;53.584;9.998;2022-08-07T03:17:53;13.70;99.90
15103;DHT22;7652;53.584;9.998;2022-08-07T03:20:58;13.60;99.90
15103;DHT22;7652;53.584;9.998;2022-08-07T03:24:02;13.50;99.90
15103;DHT22;7652;53.584;9.998;2022-08-07T03:27:27;13.50;99.90
15103;DHT22;7652;53.584;9.998;2022-08-07T03:30:52;13.50;99.90
15103;DHT22;7652;53.584;9.998;2022-08-07T03:34:16;13.60;99.90
15103;DHT22;7652;53.584;9.998;2022-08-07T03:37:23;13.60;99.90
15103;DHT22;7652;53.584;9.998;2022-08-07T03:40:29;13.60;99.90
15103;DHT22;7652;53.584;9.998;2022-08-07T03:43:38;13.60;99.90
15103;DHT22;7652;53.584;9.998;2022-08-07T03:46:59;13.60;99.90
15103;DHT22;7652;53.584;9.998;2022-08-07T03:50:16;13.60;99.90
15103;DHT22;7652;53.584;9.998;2022-08-07T03:53:24;13.60;99.90
15103;DHT22;7652;53.584;9.998;2022-08-07T03:56:48;13.60;99.90
15103;DHT22;7652;53.584;9.998;2022-08-07T04:00:09;13.60;99.90
15103;DHT22;7652;53.584;9.998;2022-08-07T04:03:14;13.60;99.90
15103;DHT22;7652;53.584;9.998;2022-08-07T04:06:18;13.60;99.90
15103;DHT22;7652;53.584;9.998;2022-08-07T04:09:39;13.60;99.90
15103;DHT22;7652;53.584;9.998;2022-08-07T04:12:51;13.70;99.90
15103;DHT22;7652;53.584;9.998;2022-08-07T04:15:56;13.70;99.90
15103;DHT22;7652;53.584;9.998;2022-08-07T04:19:01;13.80;99.90
15103;DHT22;7652;53.584;9.998;2022-08-07T04:22:13;13.70;99.90
15103;DHT22;7652;53.584;9.998;2022-08-07T04:25:21;13.70;99.90
15103;DHT22;7652;53.584;9.998;2022-08-07T04:28:30;13.60;99.90
15103;DHT22;7652;53.584;9.998;2022-08-07T04:31:33;13.60;99.90
15103;DHT22;7652;53.584;9.998;2022-08-07T04:34:59;13.60;99.90
15103;DHT22;7652;53.584;9.998;2022-08-07T04:38:07;13.60;99.90
15103;DHT22;7652;53.584;9.998;2022-08-07T04:41:14;13.60;99.90
15103;DHT22;7652;53.584;9.998;2022-08-07T04:44:20;13.60;99.90
15103;DHT22;7652;53.584;9.998;2022-08-07T04:47:34;13.70;99.90
15103;DHT22;7652;53.584;9.998;2022-08-07T04:51:06;13.70;99.90
15103;DHT22;7652;53.584;9.998;2022-08-07T04:54:16;13.70;99.90
15103;DHT22;7652;53.584;9.998;2022-08-07T04:57:35;13.70;99.90
15103;DHT22;7652;53.584;9.998;2022-08-07T05:01:06;13.80;99.90
15103;DHT22;7652;53.584;9.998;2022-08-07T05:04:24;13.90;99.90
15103;DHT22;7652;53.584;9.998;2022-08-07T05:07:39;14.00;99.90
15103;DHT22;7652;53.584;9.998;2022-08-07T05:10:57;14.00;99.90
15103;DHT22;7652;53.584;9.998;2022-08-07T05:14:08;14.10;99.90
15103;DHT22;7652;53.584;9.998;2022-08-07T05:17:32;14.20;99.90
15103;DHT22;7652;53.584;9.998;2022-08-07T05:20:58;14.30;99.90
15103;DHT22;7652;53.584;9.998;2022-08-07T05:24:08;14.40;99.90
15103;DHT22;7652;53.584;9.998;2022-08-07T05:27:14;14.50;99.90
15103;DHT22;7652;53.584;9.998;2022-08-07T05:30:38;14.70;99.90
15103;DHT22;7652;53.584;9.998;2022-08-07T05:33:44;14.80;99.90
15103;DHT22;7652;53.584;9.998;2022-08-07T05:37:03;15.00;99.90
15103;DHT22;7652;53.584;9.998;2022-08-07T05:40:10;15.20;99.90
15103;DHT22;7652;53.584;9.998;2022-08-07T05:43:21;15.40;99.90
15103;DHT22;7652;53.584;9.998;2022-08-07T05:46:45;15.80;99.90
15103;DHT22;7652;53.584;9.998;2022-08-07T05:49:52;16.40;99.90
15103;DHT22;7652;53.584;9.998;2022-08-07T05:52:56;16.90;99.90
15103;DHT22;7652;53.584;9.998;2022-08-07T05:56:01;17.40;99.90
15103;DHT22;7652;53.584;9.998;2022-08-07T05:59:11;17.70;99.90
15103;DHT22;7652;53.584;9.998;2022-08-07T06:02:15;18.10;99.90
15103;DHT22;7652;53.584;9.998;2022-08-07T06:05:29;18.60;99.90
15103;DHT22;7652;53.584;9.998;2022-08-07T06:08:33;18.90;99.90
15103;DHT22;7652;53.584;9.998;2022-08-07T06:11:44;19.10;99.90
15103;DHT22;7652;53.584;9.998;2022-08-07T06:14:48;19.70;99.90
15103;DHT22;7652;53.584;9.998;2022-08-07T06:17:51;20.00;99.90
15103;DHT22;7652;53.584;9.998;2022-08-07T06:20:57;20.40;99.90
15103;DHT22;7652;53.584;9.998;2022-08-07T06:24:21;20.70;99.90
15103;DHT22;7652;53.584;9.998;2022-08-07T06:27:45;20.90;99.90
15103;DHT22;7652;53.584;9.998;2022-08-07T06:31:02;20.90;99.90
15103;DHT22;7652;53.584;9.998;2022-08-07T06:34:06;21.30;99.90
15103;DHT22;7652;53.584;9.998;2022-08-07T06:37:10;21.70;99.90
15103;DHT22;7652;53.584;9.998;2022-08-07T06:40:21;22.10;99.90
15103;DHT22;7652;53.584;9.998;2022-08-07T06:43:26;22.10;99.90
15103;DHT22;7652;53.584;9.998;2022-08-07T06:46:41;21.70;99.90
15103;DHT22;7652;53.584;9.998;2022-08-07T06:49:55;21.00;99.90
15103;DHT22;7652;53.584;9.998;2022-08-07T06:53:00;20.40;99.90
15103;DHT22;7652;53.584;9.998;2022-08-07T06:56:06;19.90;99.90
15103;DHT22;7652;53.584;9.998;2022-08-07T06:59:20;19.50;99.90
15103;DHT22;7652;53.584;9.998;2022-08-07T07:02:43;19.20;99.90
15103;DHT22;7652;53.584;9.998;2022-08-07T07:05:58;19.10;99.90
15103;DHT22;7652;53.584;9.998;2022-08-07T07:09:21;18.90;99.90
15103;DHT22;7652;53.584;9.998;2022-08-07T07:12:37;18.80;99.90
15103;DHT22;7652;53.584;9.998;2022-08-07T07:15:55;18.80;99.90
15103;DHT22;7652;53.584;9.998;2022-08-07T07:19:03;18.70;99.90
15103;DHT22;7652;53.584;9.998;2022-08-07T07:22:28;18.70;99.90
15103;DHT22;7652;53.584;9.998;2022-08-07T07:25:53;18.70;99.90
15103;DHT22;7652;53.584;9.998;2022-08-07T07:29:17;18.70;99.90
15103;DHT22;7652;53.584;9.998;2022-08-07T07:32:44;18.70;99.90
15103;DHT22;7652;53.584;9.998;2022-08-07T07:35:50;18.70;99.90
15103;DHT22;7652;53.584;9.998;2022-08-07T07:39:07;18.80;99.90
15103;DHT22;7652;53.584;9.998;2022-08-07T07:42:15;18.90;99.90
15103;DHT22;7652;53.584;9.998;2022-08-07T07:45:25;18.90;99.90
15103;DHT22;7652;53.584;9.998;2022-08-07T07:48:50;19.10;99.90
15103;DHT22;7652;53.584;9.998;2022-08-07T07:52:10;19.20;99.90
15103;DHT22;7652;53.584;9.998;2022-08-07T07:55:25;19.40;99.90
15103;DHT22;7652;53.584;9.998;2022-08-07T07:58:46;19.50;99.90
15103;DHT22;7652;53.584;9.998;2022-08-07T08:01:55;19.60;99.90
15103;DHT22;7652;53.584;9.998;2022-08-07T08:05:15;19.60;99.90
15103;DHT22;7652;53.584;9.998;2022-08-07T08:08:25;19.70;99.90
15103;DHT22;7652;53.584;9.998;2022-08-07T08:11:37;19.70;99.90
15103;DHT22;7652;53.584;9.998;2022-08-07T08:15:01;19.70;99.90
15103;DHT22;7652;53.584;9.998;2022-08-07T08:18:09;19.70;99.90
15103;DHT22;7652;53.584;9.998;2022-08-07T08:21:21;19.80;99.90
15103;DHT22;7652;53.584;9.998;2022-08-07T08:25:02;20.00;99.90
15103;DHT22;7652;53.584;9.998;2022-08-07T08:28:44;20.20;99.90
15103;DHT22;7652;53.584;9.998;2022-08-07T08:31:48;20.30;99.90
15103;DHT22;7652;53.584;9.998;2022-08-07T08:35:17;20.40;99.90
15103;DHT22;7652;53.584;9.998;2022-08-07T08:38:24;20.50;99.90
15103;DHT22;7652;53.584;9.998;2022-08-07T08:41:42;20.40;99.90
15103;DHT22;7652;53.584;9.998;2022-08-07T08:45:05;20.40;99.90
15103;DHT22;7652;53.584;9.998;2022-08-07T08:48:24;20.50;99.90
15103;DHT22;7652;53.584;9.998;2022-08-07T08:51:46;20.60;99.90
15103;DHT22;7652;53.584;9.998;2022-08-07T08:55:18;20.70;99.90
15103;DHT22;7652;53.584;9.998;2022-08-07T08:58:49;20.70;99.90
15103;DHT22;7652;53.584;9.998;2022-08-07T09:02:03;20.70;99.90
15103;DHT22;7652;53.584;9.998;2022-08-07T09:05:18;20.80;99.90
15103;DHT22;7652;53.584;9.998;2022-08-07T09:08:46;20.80;99.90
15103;DHT22;7652;53.584;9.998;2022-08-07T09:12:06;20.90;99.90
15103;DHT22;7652;53.584;9.998;2022-08-07T09:15:37;21.10;99.90
15103;DHT22;7652;53.584;9.998;2022-08-07T09:19:14;21.20;99.90
15103;DHT22;7652;53.584;9.998;2022-08-07T09:22:56;21.20;99.90
15103;DHT22;7652;53.584;9.998;2022-08-07T09:26:28;21.30;99.90
15103;DHT22;7652;53.584;9.998;2022-08-07T09:29:40;21.30;99.90
15103;DHT22;7652;53.584;9.998;2022-08-07T09:33:15;21.20;99.90
15103;DHT22;7652;53.584;9.998;2022-08-07T09:36:52;21.10;99.90
15103;DHT22;7652;53.584;9.998;2022-08-07T09:40:02;21.10;99.90
15103;DHT22;7652;53.584;9.998;2022-08-07T09:43:21;21.10;99.90
15103;DHT22;7652;53.584;9.998;2022-08-07T09:47:08;21.10;99.90
15103;DHT22;7652;53.584;9.998;2022-08-07T09:50:43;21.20;99.90
15103;DHT22;7652;53.584;9.998;2022-08-07T09:53:56;21.30;99.90
15103;DHT22;7652;53.584;9.998;2022-08-07T09:57:14;21.30;99.90
15103;DHT22;7652;53.584;9.998;2022-08-07T10:00:27;21.30;99.90
15103;DHT22;7652;53.584;9.998;2022-08-07T10:03:48;21.20;99.90
15103;DHT22;7652;53.584;9.998;2022-08-07T10:07:25;21.10;99.90
15103;DHT22;7652;53.584;9.998;2022-08-07T10:10:57;21.20;99.90
15103;DHT22;7652;53.584;9.998;2022-08-07T10:14:32;21.20;99.90
15103;DHT22;7652;53.584;9.998;2022-08-07T10:17:58;21.40;99.90
15103;DHT22;7652;53.584;9.998;2022-08-07T10:21:23;21.50;99.90
15103;DHT22;7652;53.584;9.998;2022-08-07T10:25:06;21.70;99.90
15103;DHT22;7652;53.584;9.998;2022-08-07T10:28:21;21.90;99.90
15103;DHT22;7652;53.584;9.998;2022-08-07T10:31:41;21.80;99.90
15103;DHT22;7652;53.584;9.998;2022-08-07T10:35:02;21.80;99.90
15103;DHT22;7652;53.584;9.998;2022-08-07T10:38:37;21.80;99.90
15103;DHT22;7652;53.584;9.998;2022-08-07T10:41:52;21.90;99.90
15103;DHT22;7652;53.584;9.998;2022-08-07T10:45:19;21.90;99.90
15103;DHT22;7652;53.584;9.998;2022-08-07T10:48:54;22.10;99.90
15103;DHT22;7652;53.584;9.998;2022-08-07T10:52:05;22.20;99.90
15103;DHT22;7652;53.584;9.998;2022-08-07T10:55:20;22.40;99.90
15103;DHT22;7652;53.584;9.998;2022-08-07T10:58:53;22.60;99.90
15103;DHT22;7652;53.584;9.998;2022-08-07T11:02:07;22.70;99.90
15103;DHT22;7652;53.584;9.998;2022-08-07T11:05:41;22.80;99.90
15103;DHT22;7652;53.584;9.998;2022-08-07T11:08:53;22.80;99.90
15103;DHT22;7652;53.584;9.998;2022-08-07T11:12:05;22.80;99.90
15103;DHT22;7652;53.584;9.998;2022-08-07T11:15:19;22.90;99.90
15103;DHT22;7652;53.584;9.998;2022-08-07T11:18:36;23.00;99.90
15103;DHT22;7652;53.584;9.998;2022-08-07T11:21:48;23.10;99.90
15103;DHT22;7652;53.584;9.998;2022-08-07T11:24:57;23.10;99.60
15103;DHT22;7652;53.584;9.998;2022-08-07T11:28:13;23.30;99.60
15103;DHT22;7652;53.584;9.998;2022-08-07T11:31:23;23.40;99.10
15103;DHT22;7652;53.584;9.998;2022-08-07T11:34:35;23.50;98.80
15103;DHT22;7652;53.584;9.998;2022-08-07T11:37:55;23.50;97.90
15103;DHT22;7652;53.584;9.998;2022-08-07T11:41:17;23.20;98.30
15103;DHT22;7652;53.584;9.998;2022-08-07T11:44:51;23.00;98.80
15103;DHT22;7652;53.584;9.998;2022-08-07T11:48:21;23.00;98.40
15103;DHT22;7652;53.584;9.998;2022-08-07T11:51:40;22.80;98.80
15103;DHT22;7652;53.584;9.998;2022-08-07T11:54:57;22.70;98.70
15103;DHT22;7652;53.584;9.998;2022-08-07T11:58:18;22.50;99.10
15103;DHT22;7652;53.584;9.998;2022-08-07T12:01:45;22.50;99.50
15103;DHT22;7652;53.584;9.998;2022-08-07T12:05:07;22.60;99.40
15103;DHT22;7652;53.584;9.998;2022-08-07T12:08:33;22.80;99.10
15103;DHT22;7652;53.584;9.998;2022-08-07T12:11:43;23.20;97.90
15103;DHT22;7652;53.584;9.998;2022-08-07T12:15:12;23.40;98.10
15103;DHT22;7652;53.584;9.998;2022-08-07T12:18:42;23.30;97.60
15103;DHT22;7652;53.584;9.998;2022-08-07T12:21:56;23.40;97.20
15103;DHT22;7652;53.584;9.998;2022-08-07T12:25:24;23.30;97.50
15103;DHT22;7652;53.584;9.998;2022-08-07T12:29:15;23.50;96.70
15103;DHT22;7652;53.584;9.998;2022-08-07T12:32:41;23.50;96.00
15103;DHT22;7652;53.584;9.998;2022-08-07T12:35:53;23.50;97.20
15103;DHT22;7652;53.584;9.998;2022-08-07T12:39:00;23.80;97.20
15103;DHT22;7652;53.584;9.998;2022-08-07T12:42:10;24.20;96.50
15103;DHT22;7652;53.584;9.998;2022-08-07T12:45:18;24.50;96.90
15103;DHT22;7652;53.584;9.998;2022-08-07T12:48:35;24.70;96.50
15103;DHT22;7652;53.584;9.998;2022-08-07T12:52:00;24.70;95.60
15103;DHT22;7652;53.584;9.998;2022-08-07T12:55:22;25.10;94.30
15103;DHT22;7652;53.584;9.998;2022-08-07T12:58:50;25.10;94.90
15103;DHT22;7652;53.584;9.998;2022-08-07T13:02:07;25.30;94.50
15103;DHT22;7652;53.584;9.998;2022-08-07T13:05:23;25.30;94.40
15103;DHT22;7652;53.584;9.998;2022-08-07T13:08:57;24.80;94.90
15103;DHT22;7652;53.584;9.998;2022-08-07T13:12:09;24.60;94.80
15103;DHT22;7652;53.584;9.998;2022-08-07T13:15:23;24.60;94.70
15103;DHT22;7652;53.584;9.998;2022-08-07T13:18:38;25.00;94.80
15103;DHT22;7652;53.584;9.998;2022-08-07T13:21:55;25.60;94.60
15103;DHT22;7652;53.584;9.998;2022-08-07T13:25:20;25.80;93.80
15103;DHT22;7652;53.584;9.998;2022-08-07T13:28:36;26.10;93.10
15103;DHT22;7652;53.584;9.998;2022-08-07T13:31:47;26.50;91.60
15103;DHT22;7652;53.584;9.998;2022-08-07T13:35:04;26.50;91.70
15103;DHT22;7652;53.584;9.998;2022-08-07T13:38:12;26.40;91.50
15103;DHT22;7652;53.584;9.998;2022-08-07T13:41:26;26.20;90.90
15103;DHT22;7652;53.584;9.998;2022-08-07T13:44:37;25.90;91.40
15103;DHT22;7652;53.584;9.998;2022-08-07T13:47:44;25.60;91.60
15103;DHT22;7652;53.584;9.998;2022-08-07T13:51:10;25.60;91.70
15103;DHT22;7652;53.584;9.998;2022-08-07T13:54:35;25.40;90.80
15103;DHT22;7652;53.584;9.998;2022-08-07T13:57:58;25.30;89.60
15103;DHT22;7652;53.584;9.998;2022-08-07T14:01:35;25.10;90.70
15103;DHT22;7652;53.584;9.998;2022-08-07T14:05:01;25.00;91.10
15103;DHT22;7652;53.584;9.998;2022-08-07T14:08:07;25.00;92.00
15103;DHT22;7652;53.584;9.998;2022-08-07T14:11:12;25.00;91.40
15103;DHT22;7652;53.584;9.998;2022-08-07T14:14:25;24.90;91.90
15103;DHT22;7652;53.584;9.998;2022-08-07T14:17:36;24.70;92.40
15103;DHT22;7652;53.584;9.998;2022-08-07T14:21:03;24.60;92.10
15103;DHT22;7652;53.584;9.998;2022-08-07T14:24:14;24.70;92.00
15103;DHT22;7652;53.584;9.998;2022-08-07T14:27:28;24.60;91.90
15103;DHT22;7652;53.584;9.998;2022-08-07T14:30:56;24.70;92.10
15103;DHT22;7652;53.584;9.998;2022-08-07T14:34:01;24.60;91.90
15103;DHT22;7652;53.584;9.998;2022-08-07T14:37:09;24.50;92.10
15103;DHT22;7652;53.584;9.998;2022-08-07T14:40:19;24.20;92.10
15103;DHT22;7652;53.584;9.998;2022-08-07T14:43:30;24.10;92.50
15103;DHT22;7652;53.584;9.998;2022-08-07T14:46:57;24.00;92.80
15103;DHT22;7652;53.584;9.998;2022-08-07T14:50:21;24.00;93.10
15103;DHT22;7652;53.584;9.998;2022-08-07T14:53:30;23.90;94.00
15103;DHT22;7652;53.584;9.998;2022-08-07T14:56:55;23.70;93.90
15103;DHT22;7652;53.584;9.998;2022-08-07T15:00:03;23.80;94.10
15103;DHT22;7652;53.584;9.998;2022-08-07T15:03:11;23.90;93.90
15103;DHT22;7652;53.584;9.998;2022-08-07T15:06:36;24.00;94.20
15103;DHT22;7652;53.584;9.998;2022-08-07T15:09:40;24.10;93.10
15103;DHT22;7652;53.584;9.998;2022-08-07T15:13:04;24.10;93.40
15103;DHT22;7652;53.584;9.998;2022-08-07T15:16:15;24.00;92.80
15103;DHT22;7652;53.584;9.998;2022-08-07T15:19:48;23.90;93.00
15103;DHT22;7652;53.584;9.998;2022-08-07T15:23:17;23.90;92.80
15103;DHT22;7652;53.584;9.998;2022-08-07T15:26:31;23.80;93.30
15103;DHT22;7652;53.584;9.998;2022-08-07T15:29:38;23.60;93.40
15103;DHT22;7652;53.584;9.998;2022-08-07T15:33:03;23.60;93.80
15103;DHT22;7652;53.584;9.998;2022-08-07T15:36:29;23.80;92.80
15103;DHT22;7652;53.584;9.998;2022-08-07T15:39:58;23.90;94.00
15103;DHT22;7652;53.584;9.998;2022-08-07T15:43:11;23.90;93.90
15103;DHT22;7652;53.584;9.998;2022-08-07T15:46:37;23.90;94.10
15103;DHT22;7652;53.584;9.998;2022-08-07T15:49:55;23.90;94.50
15103;DHT22;7652;53.584;9.998;2022-08-07T15:53:10;23.70;94.60
15103;DHT22;7652;53.584;9.998;2022-08-07T15:56:15;23.60;95.00
15103;DHT22;7652;53.584;9.998;2022-08-07T15:59:25;23.60;94.80
15103;DHT22;7652;53.584;9.998;2022-08-07T16:02:43;23.60;95.00
15103;DHT22;7652;53.584;9.998;2022-08-07T16:05:50;23.60;95.00
15103;DHT22;7652;53.584;9.998;2022-08-07T16:08:58;23.60;94.60
15103;DHT22;7652;53.584;9.998;2022-08-07T16:12:12;23.50;94.60
15103;DHT22;7652;53.584;9.998;2022-08-07T16:15:44;23.50;95.40
15103;DHT22;7652;53.584;9.998;2022-08-07T16:19:13;23.50;95.30
15103;DHT22;7652;53.584;9.998;2022-08-07T16:23:07;23.40;95.80
15103;DHT22;7652;53.584;9.998;2022-08-07T16:26:48;23.40;94.80
15103;DHT22;7652;53.584;9.998;2022-08-07T16:30:07;23.20;95.10
15103;DHT22;7652;53.584;9.998;2022-08-07T16:33:31;23.10;95.50
15103;DHT22;7652;53.584;9.998;2022-08-07T16:37:23;23.20;96.00
15103;DHT22;7652;53.584;9.998;2022-08-07T16:41:20;23.20;95.50
15103;DHT22;7652;53.584;9.998;2022-08-07T16:45:02;23.20;95.40
15103;DHT22;7652;53.584;9.998;2022-08-07T16:49:04;23.10;95.60
15103;DHT22;7652;53.584;9.998;2022-08-07T16:52:44;23.00;95.90
15103;DHT22;7652;53.584;9.998;2022-08-07T16:56:02;22.90;95.90
15103;DHT22;7652;53.584;9.998;2022-08-07T16:59:10;23.00;96.80
15103;DHT22;7652;53.584;9.998;2022-08-07T17:02:39;23.00;96.20
15103;DHT22;7652;53.584;9.998;2022-08-07T17:06:12;23.00;96.20
15103;DHT22;7652;53.584;9.998;2022-08-07T17:09:43;22.90;96.60
15103;DHT22;7652;53.584;9.998;2022-08-07T17:13:35;22.70;96.90
15103;DHT22;7652;53.584;9.998;2022-08-07T17:17:05;22.70;97.00
15103;DHT22;7652;53.584;9.998;2022-08-07T17:20:23;22.60;97.50
15103;DHT22;7652;53.584;9.998;2022-08-07T17:23:40;22.60;97.00
15103;DHT22;7652;53.584;9.998;2022-08-07T17:26:57;22.60;97.20
15103;DHT22;7652;53.584;9.998;2022-08-07T17:30:05;22.60;97.40
15103;DHT22;7652;53.584;9.998;2022-08-07T17:33:25;22.50;97.50
15103;DHT22;7652;53.584;9.998;2022-08-07T17:36:53;22.40;97.40
15103;DHT22;7652;53.584;9.998;2022-08-07T17:40:25;22.30;97.60
15103;DHT22;7652;53.584;9.998;2022-08-07T17:43:37;22.30;98.10
15103;DHT22;7652;53.584;9.998;2022-08-07T17:47:05;22.30;98.40
15103;DHT22;7652;53.584;9.998;2022-08-07T17:50:16;22.10;98.60
15103;DHT22;7652;53.584;9.998;2022-08-07T17:53:29;22.10;99.10
15103;DHT22;7652;53.584;9.998;2022-08-07T17:57:00;22.00;99.20
15103;DHT22;7652;53.584;9.998;2022-08-07T18:00:24;21.90;99.60
15103;DHT22;7652;53.584;9.998;2022-08-07T18:03:45;21.80;99.80
15103;DHT22;7652;53.584;9.998;2022-08-07T18:07:15;21.80;99.90
15103;DHT22;7652;53.584;9.998;2022-08-07T18:10:38;21.70;99.90
15103;DHT22;7652;53.584;9.998;2022-08-07T18:14:12;21.70;99.90
15103;DHT22;7652;53.584;9.998;2022-08-07T18:17:31;21.60;99.90
15103;DHT22;7652;53.584;9.998;2022-08-07T18:20:59;21.50;99.90
15103;DHT22;7652;53.584;9.998;2022-08-07T18:24:27;21.50;99.90
15103;DHT22;7652;53.584;9.998;2022-08-07T18:28:03;21.40;99.90
15103;DHT22;7652;53.584;9.998;2022-08-07T18:31:17;21.30;99.90
15103;DHT22;7652;53.584;9.998;2022-08-07T18:34:50;21.20;99.90
15103;DHT22;7652;53.584;9.998;2022-08-07T18:38:16;21.20;99.90
15103;DHT22;7652;53.584;9.998;2022-08-07T18:41:50;21.10;99.90
15103;DHT22;7652;53.584;9.998;2022-08-07T18:45:07;21.00;99.90
15103;DHT22;7652;53.584;9.998;2022-08-07T18:48:40;21.00;99.90
15103;DHT22;7652;53.584;9.998;2022-08-07T18:52:21;20.90;99.90
15103;DHT22;7652;53.584;9.998;2022-08-07T18:55:56;20.80;99.90
15103;DHT22;7652;53.584;9.998;2022-08-07T18:59:17;20.70;99.90
15103;DHT22;7652;53.584;9.998;2022-08-07T19:02:50;20.70;99.90
15103;DHT22;7652;53.584;9.998;2022-08-07T19:06:02;20.60;99.90
15103;DHT22;7652;53.584;9.998;2022-08-07T19:09:11;20.50;99.90
15103;DHT22;7652;53.584;9.998;2022-08-07T19:12:54;20.50;99.90
15103;DHT22;7652;53.584;9.998;2022-08-07T19:16:20;20.40;99.90
15103;DHT22;7652;53.584;9.998;2022-08-07T19:19:55;20.40;99.90
15103;DHT22;7652;53.584;9.998;2022-08-07T19:23:10;20.30;99.90
15103;DHT22;7652;53.584;9.998;2022-08-07T19:26:24;20.20;99.90
15103;DHT22;7652;53.584;9.998;2022-08-07T19:29:31;20.10;99.90
15103;DHT22;7652;53.584;9.998;2022-08-07T19:33:01;20.00;99.90
15103;DHT22;7652;53.584;9.998;2022-08-07T19:36:17;20.00;99.90
15103;DHT22;7652;53.584;9.998;2022-08-07T19:39:30;20.00;99.90
15103;DHT22;7652;53.584;9.998;2022-08-07T19:42:55;20.00;99.90
15103;DHT22;7652;53.584;9.998;2022-08-07T19:46:01;19.90;99.90
15103;DHT22;7652;53.584;9.998;2022-08-07T19:49:14;19.90;99.90
15103;DHT22;7652;53.584;9.998;2022-08-07T19:52:24;19.90;99.90
15103;DHT22;7652;53.584;9.998;2022-08-07T19:55:29;19.80;99.90
15103;DHT22;7652;53.584;9.998;2022-08-07T19:58:53;19.70;99.90
15103;DHT22;7652;53.584;9.998;2022-08-07T20:01:57;19.70;99.90
15103;DHT22;7652;53.584;9.998;2022-08-07T20:05:06;19.60;99.90
15103;DHT22;7652;53.584;9.998;2022-08-07T20:08:14;19.60;99.90
15103;DHT22;7652;53.584;9.998;2022-08-07T20:11:21;19.60;99.90
15103;DHT22;7652;53.584;9.998;2022-08-07T20:14:46;19.50;99.90
15103;DHT22;7652;53.584;9.998;2022-08-07T20:18:02;19.50;99.90
15103;DHT22;7652;53.584;9.998;2022-08-07T20:21:16;19.40;99.90
15103;DHT22;7652;53.584;9.998;2022-08-07T20:24:26;19.40;99.90
15103;DHT22;7652;53.584;9.998;2022-08-07T20:27:32;19.30;99.90
15103;DHT22;7652;53.584;9.998;2022-08-07T20:30:48;19.20;99.90
15103;DHT22;7652;53.584;9.998;2022-08-07T20:33:53;19.10;99.90
15103;DHT22;7652;53.584;9.998;2022-08-07T20:36:58;19.00;99.90
15103;DHT22;7652;53.584;9.998;2022-08-07T20:40:05;19.00;99.90
15103;DHT22;7652;53.584;9.998;2022-08-07T20:43:30;19.00;99.90
15103;DHT22;7652;53.584;9.998;2022-08-07T20:46:34;18.90;99.90
15103;DHT22;7652;53.584;9.998;2022-08-07T20:49:47;18.90;99.90
15103;DHT22;7652;53.584;9.998;2022-08-07T20:53:02;18.90;99.90
15103;DHT22;7652;53.584;9.998;2022-08-07T20:56:08;18.70;99.90
15103;DHT22;7652;53.584;9.998;2022-08-07T20:59:13;18.70;99.90
15103;DHT22;7652;53.584;9.998;2022-08-07T21:02:47;18.70;99.90
15103;DHT22;7652;53.584;9.998;2022-08-07T21:06:03;18.60;99.90